Chesapeake — WDD3041 — position and weather

sailwx.info

Track history (hours):
 
Tides and Currents Weather Stations Pressure Air Temp Water Temp Dewpoint Dewpoint Depression Visibility Wind Speed Wind Dir Waves Ship Positions

Chesapeake

Owner: Vane Line Bunkering, Baltimore, MD. More information available from US FCC via Universal Licensing System and Coast Guard Vessel Documentation Center.

Last reported at 2015-Mar-31 06:19 UTC. Time now 2015-Mar-31 18:04 UTC.
Position N 40°37' W 074°12'.

Length 34 m; draft 16 m.

Type: Tug. MMSI: 367123040.

Date/timePositionNaut miles runAvg speedWind from/ knotsBaromVisibWave heightAir tempDewpointWater temp
2015-Mar-31 06:19N 40°37' W 074°12'7 8.6
2015-Mar-31 05:33N 40°39' W 074°04'3 3.2
2015-Mar-31 04:33N 40°40' W 074°00'0 0.0
2015-Mar-31 03:33N 40°40' W 074°00'0 0.0
2015-Mar-31 02:33N 40°40' W 074°00'0 0.0
2015-Mar-31 01:33N 40°40' W 074°00'0 0.0
2015-Mar-31 00:33N 40°40' W 074°00'0 0.0
2015-Mar-30 23:33N 40°40' W 074°00'0 0.0
2015-Mar-30 22:33N 40°40' W 074°00'0 0.0
2015-Mar-30 21:33N 40°40' W 074°00'0 0.0
2015-Mar-30 20:33N 40°40' W 074°00'0 0.2
2015-Mar-30 19:33N 40°40' W 074°00'9 9.0
2015-Mar-30 18:33N 40°38' W 074°12'2 1.9
2015-Mar-30 17:31N 40°39' W 074°10'5 5.5
2015-Mar-30 16:33N 40°39' W 074°03'4 4.0
2015-Mar-30 15:33N 40°42' W 074°01'9 8.6
2015-Mar-30 14:33N 40°48' W 073°53'21 9.5
2015-Mar-30 12:18N 40°59' W 073°28'810.3
2015-Mar-30 11:33N 41°02' W 073°19'1010.4
2015-Mar-30 10:33N 41°07' W 073°07'1010.4
2015-Mar-30 09:33N 41°12' W 072°55'6 5.7
2015-Mar-30 08:33N 41°18' W 072°54'0 0.0
2015-Mar-30 07:32N 41°18' W 072°54'0 0.0
2015-Mar-30 03:09N 41°18' W 072°54'0 0.0
2015-Mar-30 02:27N 41°18' W 072°54'0 0.0
2015-Mar-30 01:33N 41°18' W 072°54'0 0.0
2015-Mar-30 00:33N 41°18' W 072°54'0 0.0
2015-Mar-29 23:33N 41°18' W 072°54'0 0.0
2015-Mar-29 22:33N 41°18' W 072°54'1 1.4
2015-Mar-29 21:33N 41°16' W 072°55'4 3.7
2015-Mar-29 20:33N 41°13' W 072°54'2 1.7
2015-Mar-29 19:33N 41°12' W 072°56'0 0.0
2015-Mar-29 15:33N 41°12' W 072°56'8 7.7
2015-Mar-29 14:33N 41°08' W 073°04'9 9.4
2015-Mar-29 13:33N 41°03' W 073°15'9 9.2
2015-Mar-29 12:33N 40°59' W 073°26'9 9.0
2015-Mar-29 11:31N 40°55' W 073°38'9 8.7
2015-Mar-29 10:31N 40°50' W 073°47'7 7.5
2015-Mar-29 09:33N 40°47' W 073°55'8 8.3
2015-Mar-29 08:33N 40°40' W 074°01'2 1.9
2015-Mar-29 07:33N 40°39' W 074°03'6 5.6
2015-Mar-29 06:33N 40°39' W 074°10'4 3.0
2015-Mar-29 05:18N 40°35' W 074°12'0 0.0
2015-Mar-29 03:32N 40°35' W 074°12'0 0.0
2015-Mar-29 02:29N 40°35' W 074°12'0 0.0
2015-Mar-29 00:31N 40°35' W 074°12'0 0.0
2015-Mar-28 23:33N 40°35' W 074°12'3 3.2
2015-Mar-28 22:31N 40°33' W 074°15'0 0.2
2015-Mar-28 21:20N 40°33' W 074°15'0 0.0
2015-Mar-28 20:33N 40°33' W 074°15'0 0.0
2015-Mar-28 19:33N 40°33' W 074°15'0 0.0
2015-Mar-28 18:32N 40°33' W 074°15'0 0.0
2015-Mar-28 17:32N 40°33' W 074°15'0 0.0
2015-Mar-28 16:33N 40°33' W 074°15'0 0.0
2015-Mar-28 15:33N 40°33' W 074°15'0 0.0
2015-Mar-28 14:33N 40°33' W 074°15'0 0.0
2015-Mar-28 13:33N 40°33' W 074°15'0 0.0
2015-Mar-28 12:33N 40°33' W 074°15'0 0.0
2015-Mar-28 11:33N 40°33' W 074°15'4 3.2
2015-Mar-28 10:18N 40°36' W 074°12'1 0.7
2015-Mar-28 09:28N 40°36' W 074°12'0 0.0
2015-Mar-27 20:26N 40°35' W 074°12'0 0.0
2015-Mar-27 19:18N 40°35' W 074°12'0 0.0
2015-Mar-27 17:27N 40°35' W 074°12'2 1.1
2015-Mar-27 15:26N 40°38' W 074°12'4 0.3
2015-Mar-27 00:32N 40°39' W 074°07'5 5.6
2015-Mar-26 23:33N 40°40' W 074°00'0 0.0
2015-Mar-26 22:33N 40°40' W 074°00'0 0.0
2015-Mar-26 21:33N 40°40' W 074°00'0 0.0
2015-Mar-26 20:33N 40°40' W 074°00'0 0.0
2015-Mar-26 19:33N 40°40' W 074°00'0 0.0
2015-Mar-26 18:33N 40°40' W 074°00'0 0.0
2015-Mar-26 17:33N 40°40' W 074°00'0 0.0
2015-Mar-26 16:33N 40°40' W 074°00'0 0.0
2015-Mar-26 15:33N 40°40' W 074°00'0 0.0
2015-Mar-26 14:33N 40°40' W 074°00'0 0.0
2015-Mar-26 13:33N 40°40' W 074°00'0 0.0
2015-Mar-26 12:33N 40°40' W 074°00'0 0.0
2015-Mar-26 11:33N 40°40' W 074°00'0 0.0
2015-Mar-26 10:33N 40°40' W 074°00'0 0.0
2015-Mar-26 09:33N 40°40' W 074°00'16 2.2
2015-Mar-26 02:23N 40°30' W 074°16'0 0.1
2015-Mar-26 01:13N 40°30' W 074°16'6 2.4
2015-Mar-25 22:31N 40°36' W 074°12'0 0.1
2015-Mar-25 21:33N 40°36' W 074°12'0 0.1
2015-Mar-25 20:31N 40°35' W 074°12'3 0.1
2015-Mar-25 02:25N 40°38' W 074°12'8 9.7
2015-Mar-25 01:33N 40°40' W 074°01'1 0.9
2015-Mar-25 00:33N 40°40' W 074°00'0 0.0
2015-Mar-24 23:33N 40°40' W 074°00'0 0.0
2015-Mar-24 22:33N 40°40' W 074°00'0 0.0
2015-Mar-24 21:33N 40°40' W 074°00'0 0.0
2015-Mar-24 20:33N 40°40' W 074°00'0 0.0
2015-Mar-24 19:33N 40°40' W 074°00'0 0.0
2015-Mar-24 18:33N 40°40' W 074°00'0 0.0
2015-Mar-24 17:33N 40°40' W 074°00'0 0.0
2015-Mar-24 16:33N 40°40' W 074°00'1 1.4
2015-Mar-24 15:33N 40°39' W 074°02'9 8.0
2015-Mar-24 14:27N 40°35' W 074°12'6 0.6
2015-Mar-24 03:09N 40°30' W 074°16'0 0.0
2015-Mar-24 02:28N 40°30' W 074°16'  
Track history (hours):
 
Tides and Currents Weather Stations Pressure Air Temp Water Temp Dewpoint Dewpoint Depression Visibility Wind Speed Wind Dir Waves Ship Positions

Chesapeake

Owner: Vane Line Bunkering, Baltimore, MD. More information available from US FCC via Universal Licensing System and Coast Guard Vessel Documentation Center.

Last reported at 2015-Mar-31 06:19 UTC. Time now 2015-Mar-31 18:04 UTC.
Position N 40°37' W 074°12'.

Length 34 m; draft 16 m.

Type: Tug. MMSI: 367123040.

Date/timePositionNaut miles runAvg speedWind from/ knotsBaromVisibWave heightAir tempDewpointWater temp
2015-Mar-31 06:19N 40°37' W 074°12'7 8.6
2015-Mar-31 05:33N 40°39' W 074°04'3 3.2
2015-Mar-31 04:33N 40°40' W 074°00'0 0.0
2015-Mar-31 03:33N 40°40' W 074°00'0 0.0
2015-Mar-31 02:33N 40°40' W 074°00'0 0.0
2015-Mar-31 01:33N 40°40' W 074°00'0 0.0
2015-Mar-31 00:33N 40°40' W 074°00'0 0.0
2015-Mar-30 23:33N 40°40' W 074°00'0 0.0
2015-Mar-30 22:33N 40°40' W 074°00'0 0.0
2015-Mar-30 21:33N 40°40' W 074°00'0 0.0
2015-Mar-30 20:33N 40°40' W 074°00'0 0.2
2015-Mar-30 19:33N 40°40' W 074°00'9 9.0
2015-Mar-30 18:33N 40°38' W 074°12'2 1.9
2015-Mar-30 17:31N 40°39' W 074°10'5 5.5
2015-Mar-30 16:33N 40°39' W 074°03'4 4.0
2015-Mar-30 15:33N 40°42' W 074°01'9 8.6
2015-Mar-30 14:33N 40°48' W 073°53'21 9.5
2015-Mar-30 12:18N 40°59' W 073°28'810.3
2015-Mar-30 11:33N 41°02' W 073°19'1010.4
2015-Mar-30 10:33N 41°07' W 073°07'1010.4
2015-Mar-30 09:33N 41°12' W 072°55'6 5.7
2015-Mar-30 08:33N 41°18' W 072°54'0 0.0
2015-Mar-30 07:32N 41°18' W 072°54'0 0.0
2015-Mar-30 03:09N 41°18' W 072°54'0 0.0
2015-Mar-30 02:27N 41°18' W 072°54'0 0.0
2015-Mar-30 01:33N 41°18' W 072°54'0 0.0
2015-Mar-30 00:33N 41°18' W 072°54'0 0.0
2015-Mar-29 23:33N 41°18' W 072°54'0 0.0
2015-Mar-29 22:33N 41°18' W 072°54'1 1.4
2015-Mar-29 21:33N 41°16' W 072°55'4 3.7
2015-Mar-29 20:33N 41°13' W 072°54'2 1.7
2015-Mar-29 19:33N 41°12' W 072°56'0 0.0
2015-Mar-29 15:33N 41°12' W 072°56'8 7.7
2015-Mar-29 14:33N 41°08' W 073°04'9 9.4
2015-Mar-29 13:33N 41°03' W 073°15'9 9.2
2015-Mar-29 12:33N 40°59' W 073°26'9 9.0
2015-Mar-29 11:31N 40°55' W 073°38'9 8.7
2015-Mar-29 10:31N 40°50' W 073°47'7 7.5
2015-Mar-29 09:33N 40°47' W 073°55'8 8.3
2015-Mar-29 08:33N 40°40' W 074°01'2 1.9
2015-Mar-29 07:33N 40°39' W 074°03'6 5.6
2015-Mar-29 06:33N 40°39' W 074°10'4 3.0
2015-Mar-29 05:18N 40°35' W 074°12'0 0.0
2015-Mar-29 03:32N 40°35' W 074°12'0 0.0
2015-Mar-29 02:29N 40°35' W 074°12'0 0.0
2015-Mar-29 00:31N 40°35' W 074°12'0 0.0
2015-Mar-28 23:33N 40°35' W 074°12'3 3.2
2015-Mar-28 22:31N 40°33' W 074°15'0 0.2
2015-Mar-28 21:20N 40°33' W 074°15'0 0.0
2015-Mar-28 20:33N 40°33' W 074°15'0 0.0
2015-Mar-28 19:33N 40°33' W 074°15'0 0.0
2015-Mar-28 18:32N 40°33' W 074°15'0 0.0
2015-Mar-28 17:32N 40°33' W 074°15'0 0.0
2015-Mar-28 16:33N 40°33' W 074°15'0 0.0
2015-Mar-28 15:33N 40°33' W 074°15'0 0.0
2015-Mar-28 14:33N 40°33' W 074°15'0 0.0
2015-Mar-28 13:33N 40°33' W 074°15'0 0.0
2015-Mar-28 12:33N 40°33' W 074°15'0 0.0
2015-Mar-28 11:33N 40°33' W 074°15'4 3.2
2015-Mar-28 10:18N 40°36' W 074°12'1 0.7
2015-Mar-28 09:28N 40°36' W 074°12'0 0.0
2015-Mar-27 20:26N 40°35' W 074°12'0 0.0
2015-Mar-27 19:18N 40°35' W 074°12'0 0.0
2015-Mar-27 17:27N 40°35' W 074°12'2 1.1
2015-Mar-27 15:26N 40°38' W 074°12'4 0.3
2015-Mar-27 00:32N 40°39' W 074°07'5 5.6
2015-Mar-26 23:33N 40°40' W 074°00'0 0.0
2015-Mar-26 22:33N 40°40' W 074°00'0 0.0
2015-Mar-26 21:33N 40°40' W 074°00'0 0.0
2015-Mar-26 20:33N 40°40' W 074°00'0 0.0
2015-Mar-26 19:33N 40°40' W 074°00'0 0.0
2015-Mar-26 18:33N 40°40' W 074°00'0 0.0
2015-Mar-26 17:33N 40°40' W 074°00'0 0.0
2015-Mar-26 16:33N 40°40' W 074°00'0 0.0
2015-Mar-26 15:33N 40°40' W 074°00'0 0.0
2015-Mar-26 14:33N 40°40' W 074°00'0 0.0
2015-Mar-26 13:33N 40°40' W 074°00'0 0.0
2015-Mar-26 12:33N 40°40' W 074°00'0 0.0
2015-Mar-26 11:33N 40°40' W 074°00'0 0.0
2015-Mar-26 10:33N 40°40' W 074°00'0 0.0
2015-Mar-26 09:33N 40°40' W 074°00'16 2.2
2015-Mar-26 02:23N 40°30' W 074°16'0 0.1
2015-Mar-26 01:13N 40°30' W 074°16'6 2.4
2015-Mar-25 22:31N 40°36' W 074°12'0 0.1
2015-Mar-25 21:33N 40°36' W 074°12'0 0.1
2015-Mar-25 20:31N 40°35' W 074°12'3 0.1
2015-Mar-25 02:25N 40°38' W 074°12'8 9.7
2015-Mar-25 01:33N 40°40' W 074°01'1 0.9
2015-Mar-25 00:33N 40°40' W 074°00'0 0.0
2015-Mar-24 23:33N 40°40' W 074°00'0 0.0
2015-Mar-24 22:33N 40°40' W 074°00'0 0.0
2015-Mar-24 21:33N 40°40' W 074°00'0 0.0
2015-Mar-24 20:33N 40°40' W 074°00'0 0.0
2015-Mar-24 19:33N 40°40' W 074°00'0 0.0
2015-Mar-24 18:33N 40°40' W 074°00'0 0.0
2015-Mar-24 17:33N 40°40' W 074°00'0 0.0
2015-Mar-24 16:33N 40°40' W 074°00'1 1.4
2015-Mar-24 15:33N 40°39' W 074°02'9 8.0
2015-Mar-24 14:27N 40°35' W 074°12'6 0.6
2015-Mar-24 03:09N 40°30' W 074°16'0 0.0
2015-Mar-24 02:28N 40°30' W 074°16'  

Dump ship's entire track history